createdAt,value
2023-03-29T00:06:35.530Z,100.00
2023-03-29T00:21:36.959Z,100.00
2023-03-29T00:36:40.464Z,100.00
2023-03-29T00:51:42.551Z,100.00
2023-03-29T01:06:45.345Z,100.00
2023-03-29T01:21:46.862Z,100.00
2023-03-29T01:36:49.582Z,100.00
2023-03-29T01:51:51.286Z,100.00
2023-03-29T02:06:54.210Z,100.00
2023-03-29T02:21:55.598Z,100.00
2023-03-29T02:36:58.844Z,100.00
2023-03-29T02:52:00.595Z,100.00
2023-03-29T03:07:02.096Z,100.00
2023-03-29T03:22:05.932Z,100.00
2023-03-29T03:37:07.441Z,100.00
2023-03-29T03:52:10.189Z,100.00
2023-03-29T04:07:13.100Z,100.00
2023-03-29T04:22:33.026Z,100.00
2023-03-29T04:37:35.175Z,100.00
2023-03-29T04:52:37.113Z,100.00
2023-03-29T05:07:40.965Z,100.00
2023-03-29T05:22:44.059Z,100.00
2023-03-29T05:37:51.632Z,100.00
2023-03-29T05:52:53.193Z,100.00
2023-03-29T06:07:54.809Z,100.00
2023-03-29T06:23:13.194Z,100.00
2023-03-29T06:38:15.211Z,100.00
2023-03-29T06:53:41.010Z,100.00
2023-03-29T07:08:47.389Z,100.00
2023-03-29T07:24:02.418Z,98.66
2023-03-29T07:39:04.000Z,97.43
2023-03-29T07:54:09.003Z,100.00
2023-03-29T08:09:13.727Z,87.49
2023-03-29T08:24:20.835Z,86.34
2023-03-29T08:39:26.665Z,84.60
2023-03-29T08:54:54.315Z,83.78
2023-03-29T09:10:02.123Z,81.33
2023-03-29T09:25:10.789Z,81.95
2023-03-29T09:40:12.371Z,85.90
2023-03-29T09:55:26.423Z,76.95
2023-03-29T10:10:43.416Z,73.99
2023-03-29T10:25:45.502Z,70.35
2023-03-29T10:40:47.553Z,66.08
2023-03-29T10:55:49.115Z,68.04
2023-03-29T11:10:50.668Z,61.85
2023-03-29T11:25:52.080Z,58.40
2023-03-29T11:40:53.514Z,58.72
2023-03-29T11:55:54.919Z,59.32
2023-03-29T12:10:56.639Z,49.54
2023-03-29T12:25:58.088Z,53.08
2023-03-29T12:41:00.188Z,54.07
2023-03-29T12:56:32.457Z,51.66
2023-03-29T13:11:34.261Z,56.76
2023-03-29T13:26:35.765Z,56.91
2023-03-29T13:41:37.467Z,58.14
2023-03-29T13:56:38.904Z,55.99
2023-03-29T14:11:40.694Z,57.00
2023-03-29T14:26:42.090Z,59.99
2023-03-29T14:41:43.493Z,64.42
2023-03-29T14:56:44.889Z,67.49
2023-03-29T15:11:46.460Z,74.67
2023-03-29T15:26:47.899Z,88.29
2023-03-29T15:41:49.311Z,100.00
2023-03-29T15:56:51.330Z,100.00
2023-03-29T16:11:52.840Z,100.00
2023-03-29T16:26:55.810Z,100.00
2023-03-29T16:41:57.658Z,100.00
2023-03-29T16:56:59.094Z,100.00
2023-03-29T17:12:00.532Z,100.00
2023-03-29T17:27:01.906Z,100.00
2023-03-29T17:42:03.306Z,100.00
2023-03-29T17:57:04.745Z,100.00
2023-03-29T18:12:07.536Z,100.00
2023-03-29T18:27:08.929Z,100.00
2023-03-29T18:42:12.111Z,100.00
2023-03-29T18:57:14.100Z,100.00
2023-03-29T19:12:15.704Z,100.00
2023-03-29T19:27:17.101Z,100.00
2023-03-29T19:42:18.500Z,100.00
2023-03-29T19:57:19.923Z,100.00
2023-03-29T20:12:21.371Z,100.00
2023-03-29T20:27:22.728Z,100.00
2023-03-29T20:42:28.713Z,100.00
2023-03-29T20:57:30.664Z,100.00
2023-03-29T21:12:32.169Z,100.00
2023-03-29T21:27:34.084Z,100.00
2023-03-29T21:42:35.441Z,100.00
2023-03-29T21:57:36.831Z,95.00
2023-03-29T22:12:38.455Z,96.43
2023-03-29T22:27:40.268Z,85.32
2023-03-29T22:42:41.788Z,79.83
2023-03-29T22:57:43.704Z,79.00
2023-03-29T23:12:45.100Z,80.73
2023-03-29T23:27:46.617Z,82.89
2023-03-29T23:42:48.921Z,87.17
2023-03-29T23:57:50.373Z,89.56
